sensor_id;sensor_type;location;lat;lon;timestamp;P1;durP1;ratioP1;P2;durP2;ratioP2
4676;SDS011;2352;48.180;11.478;2023-06-22T00:01:24;4.60;;;4.20;;
4676;SDS011;2352;48.180;11.478;2023-06-22T00:04:27;6.88;;;4.07;;
4676;SDS011;2352;48.180;11.478;2023-06-22T00:07:31;5.80;;;3.50;;
4676;SDS011;2352;48.180;11.478;2023-06-22T00:10:34;4.57;;;3.65;;
4676;SDS011;2352;48.180;11.478;2023-06-22T00:13:38;4.30;;;3.90;;
4676;SDS011;2352;48.180;11.478;2023-06-22T00:16:42;4.20;;;3.55;;
4676;SDS011;2352;48.180;11.478;2023-06-22T00:19:49;4.60;;;3.90;;
4676;SDS011;2352;48.180;11.478;2023-06-22T00:22:55;4.07;;;3.40;;
4676;SDS011;2352;48.180;11.478;2023-06-22T00:25:58;5.45;;;4.05;;
4676;SDS011;2352;48.180;11.478;2023-06-22T00:29:01;4.20;;;3.72;;
4676;SDS011;2352;48.180;11.478;2023-06-22T00:32:06;4.38;;;3.28;;
4676;SDS011;2352;48.180;11.478;2023-06-22T00:35:10;5.55;;;4.25;;
4676;SDS011;2352;48.180;11.478;2023-06-22T00:38:13;4.65;;;4.20;;
4676;SDS011;2352;48.180;11.478;2023-06-22T00:41:17;6.40;;;3.72;;
4676;SDS011;2352;48.180;11.478;2023-06-22T00:44:20;4.53;;;3.97;;
4676;SDS011;2352;48.180;11.478;2023-06-22T00:47:24;5.78;;;3.78;;
4676;SDS011;2352;48.180;11.478;2023-06-22T00:50:29;5.22;;;3.78;;
4676;SDS011;2352;48.180;11.478;2023-06-22T00:53:35;4.38;;;3.40;;
4676;SDS011;2352;48.180;11.478;2023-06-22T00:56:39;4.43;;;3.38;;
4676;SDS011;2352;48.180;11.478;2023-06-22T00:59:43;4.35;;;3.60;;
4676;SDS011;2352;48.180;11.478;2023-06-22T01:02:48;4.10;;;3.70;;
4676;SDS011;2352;48.180;11.478;2023-06-22T01:05:53;3.67;;;2.95;;
4676;SDS011;2352;48.180;11.478;2023-06-22T01:09:00;5.18;;;3.55;;
4676;SDS011;2352;48.180;11.478;2023-06-22T01:12:06;4.78;;;3.55;;
4676;SDS011;2352;48.180;11.478;2023-06-22T01:15:11;3.95;;;3.65;;
4676;SDS011;2352;48.180;11.478;2023-06-22T01:18:18;10.27;;;4.07;;
4676;SDS011;2352;48.180;11.478;2023-06-22T01:21:22;4.53;;;4.03;;
4676;SDS011;2352;48.180;11.478;2023-06-22T01:24:26;5.10;;;3.75;;
4676;SDS011;2352;48.180;11.478;2023-06-22T01:27:36;3.80;;;3.47;;
4676;SDS011;2352;48.180;11.478;2023-06-22T01:30:44;4.10;;;3.70;;
4676;SDS011;2352;48.180;11.478;2023-06-22T01:33:49;4.38;;;3.97;;
4676;SDS011;2352;48.180;11.478;2023-06-22T01:36:53;3.38;;;3.17;;
4676;SDS011;2352;48.180;11.478;2023-06-22T01:39:57;7.18;;;3.90;;
4676;SDS011;2352;48.180;11.478;2023-06-22T01:43:01;5.32;;;3.97;;
4676;SDS011;2352;48.180;11.478;2023-06-22T01:46:06;4.47;;;3.40;;
4676;SDS011;2352;48.180;11.478;2023-06-22T01:49:10;10.35;;;3.95;;
4676;SDS011;2352;48.180;11.478;2023-06-22T01:52:13;7.68;;;4.65;;
4676;SDS011;2352;48.180;11.478;2023-06-22T01:55:17;5.82;;;3.33;;
4676;SDS011;2352;48.180;11.478;2023-06-22T01:58:20;3.60;;;3.08;;
4676;SDS011;2352;48.180;11.478;2023-06-22T02:01:27;4.07;;;3.88;;
4676;SDS011;2352;48.180;11.478;2023-06-22T02:04:33;4.50;;;4.07;;
4676;SDS011;2352;48.180;11.478;2023-06-22T02:07:39;5.07;;;4.57;;
4676;SDS011;2352;48.180;11.478;2023-06-22T02:10:44;4.35;;;3.95;;
4676;SDS011;2352;48.180;11.478;2023-06-22T02:13:48;4.43;;;3.97;;
4676;SDS011;2352;48.180;11.478;2023-06-22T02:16:54;3.67;;;3.17;;
4676;SDS011;2352;48.180;11.478;2023-06-22T02:20:00;4.10;;;3.45;;
4676;SDS011;2352;48.180;11.478;2023-06-22T02:23:04;5.18;;;4.63;;
4676;SDS011;2352;48.180;11.478;2023-06-22T02:26:08;4.60;;;4.20;;
4676;SDS011;2352;48.180;11.478;2023-06-22T02:29:11;6.03;;;3.42;;
4676;SDS011;2352;48.180;11.478;2023-06-22T02:32:16;4.72;;;4.22;;
4676;SDS011;2352;48.180;11.478;2023-06-22T02:35:19;4.55;;;3.97;;
4676;SDS011;2352;48.180;11.478;2023-06-22T02:38:22;4.38;;;4.03;;
4676;SDS011;2352;48.180;11.478;2023-06-22T02:41:26;6.07;;;4.53;;
4676;SDS011;2352;48.180;11.478;2023-06-22T02:44:29;4.50;;;3.72;;
4676;SDS011;2352;48.180;11.478;2023-06-22T02:47:34;4.38;;;3.92;;
4676;SDS011;2352;48.180;11.478;2023-06-22T02:50:37;4.57;;;3.88;;
4676;SDS011;2352;48.180;11.478;2023-06-22T02:53:40;5.28;;;4.38;;
4676;SDS011;2352;48.180;11.478;2023-06-22T02:56:45;4.97;;;4.45;;
4676;SDS011;2352;48.180;11.478;2023-06-22T02:59:49;4.55;;;4.13;;
4676;SDS011;2352;48.180;11.478;2023-06-22T03:02:54;6.25;;;3.90;;
4676;SDS011;2352;48.180;11.478;2023-06-22T03:05:57;4.20;;;3.83;;
4676;SDS011;2352;48.180;11.478;2023-06-22T03:09:02;5.18;;;4.25;;
4676;SDS011;2352;48.180;11.478;2023-06-22T03:12:06;5.72;;;5.15;;
4676;SDS011;2352;48.180;11.478;2023-06-22T03:15:10;9.20;;;5.28;;
4676;SDS011;2352;48.180;11.478;2023-06-22T03:18:15;5.82;;;4.47;;
4676;SDS011;2352;48.180;11.478;2023-06-22T03:21:19;4.93;;;4.50;;
4676;SDS011;2352;48.180;11.478;2023-06-22T03:24:22;5.70;;;4.28;;
4676;SDS011;2352;48.180;11.478;2023-06-22T03:27:25;8.65;;;6.03;;
4676;SDS011;2352;48.180;11.478;2023-06-22T03:30:28;5.78;;;5.30;;
4676;SDS011;2352;48.180;11.478;2023-06-22T03:33:34;5.00;;;4.60;;
4676;SDS011;2352;48.180;11.478;2023-06-22T03:36:37;6.47;;;5.50;;
4676;SDS011;2352;48.180;11.478;2023-06-22T03:39:40;5.32;;;4.93;;
4676;SDS011;2352;48.180;11.478;2023-06-22T03:42:43;5.53;;;5.05;;
4676;SDS011;2352;48.180;11.478;2023-06-22T03:45:47;6.13;;;5.28;;
4676;SDS011;2352;48.180;11.478;2023-06-22T03:48:51;5.10;;;4.70;;
4676;SDS011;2352;48.180;11.478;2023-06-22T03:51:55;10.25;;;5.60;;
4676;SDS011;2352;48.180;11.478;2023-06-22T03:54:58;5.15;;;4.75;;
4676;SDS011;2352;48.180;11.478;2023-06-22T03:58:01;4.70;;;4.30;;
4676;SDS011;2352;48.180;11.478;2023-06-22T04:01:07;5.30;;;4.90;;
4676;SDS011;2352;48.180;11.478;2023-06-22T04:04:13;7.43;;;6.05;;
4676;SDS011;2352;48.180;11.478;2023-06-22T04:07:17;6.22;;;5.03;;
4676;SDS011;2352;48.180;11.478;2023-06-22T04:10:20;5.00;;;4.50;;
4676;SDS011;2352;48.180;11.478;2023-06-22T04:13:23;6.90;;;5.15;;
4676;SDS011;2352;48.180;11.478;2023-06-22T04:16:27;7.88;;;5.22;;
4676;SDS011;2352;48.180;11.478;2023-06-22T04:19:31;5.80;;;5.20;;
4676;SDS011;2352;48.180;11.478;2023-06-22T04:22:35;8.93;;;6.15;;
4676;SDS011;2352;48.180;11.478;2023-06-22T04:25:38;4.82;;;4.47;;
4676;SDS011;2352;48.180;11.478;2023-06-22T04:28:42;10.07;;;5.28;;
4676;SDS011;2352;48.180;11.478;2023-06-22T04:31:52;7.40;;;4.85;;
4676;SDS011;2352;48.180;11.478;2023-06-22T04:34:59;6.55;;;5.43;;
4676;SDS011;2352;48.180;11.478;2023-06-22T04:38:02;5.45;;;4.43;;
4676;SDS011;2352;48.180;11.478;2023-06-22T04:41:05;4.97;;;4.57;;
4676;SDS011;2352;48.180;11.478;2023-06-22T04:44:10;6.88;;;6.25;;
4676;SDS011;2352;48.180;11.478;2023-06-22T04:47:14;6.22;;;4.35;;
4676;SDS011;2352;48.180;11.478;2023-06-22T04:50:18;7.00;;;5.95;;
4676;SDS011;2352;48.180;11.478;2023-06-22T04:53:23;11.07;;;5.45;;
4676;SDS011;2352;48.180;11.478;2023-06-22T04:56:30;5.90;;;5.18;;
4676;SDS011;2352;48.180;11.478;2023-06-22T04:59:34;7.35;;;5.20;;
4676;SDS011;2352;48.180;11.478;2023-06-22T05:02:37;6.95;;;5.15;;
4676;SDS011;2352;48.180;11.478;2023-06-22T05:05:42;8.23;;;5.82;;
4676;SDS011;2352;48.180;11.478;2023-06-22T05:08:45;6.20;;;5.18;;
4676;SDS011;2352;48.180;11.478;2023-06-22T05:11:48;6.70;;;5.18;;
4676;SDS011;2352;48.180;11.478;2023-06-22T05:14:52;6.25;;;5.65;;
4676;SDS011;2352;48.180;11.478;2023-06-22T05:17:55;5.93;;;5.38;;
4676;SDS011;2352;48.180;11.478;2023-06-22T05:21:01;8.55;;;5.97;;
4676;SDS011;2352;48.180;11.478;2023-06-22T05:24:04;11.07;;;5.72;;
4676;SDS011;2352;48.180;11.478;2023-06-22T05:27:08;6.75;;;6.15;;
4676;SDS011;2352;48.180;11.478;2023-06-22T05:30:11;7.65;;;6.25;;
4676;SDS011;2352;48.180;11.478;2023-06-22T05:33:14;9.48;;;5.50;;
4676;SDS011;2352;48.180;11.478;2023-06-22T05:36:19;7.05;;;5.45;;
4676;SDS011;2352;48.180;11.478;2023-06-22T05:39:26;9.90;;;5.22;;
4676;SDS011;2352;48.180;11.478;2023-06-22T05:42:29;6.70;;;6.10;;
4676;SDS011;2352;48.180;11.478;2023-06-22T05:45:33;8.73;;;5.18;;
4676;SDS011;2352;48.180;11.478;2023-06-22T05:48:36;8.73;;;5.32;;
4676;SDS011;2352;48.180;11.478;2023-06-22T05:51:41;8.23;;;5.78;;
4676;SDS011;2352;48.180;11.478;2023-06-22T05:54:44;6.20;;;5.60;;
4676;SDS011;2352;48.180;11.478;2023-06-22T05:57:48;7.03;;;6.32;;
4676;SDS011;2352;48.180;11.478;2023-06-22T06:00:51;9.20;;;6.72;;
4676;SDS011;2352;48.180;11.478;2023-06-22T06:03:54;9.27;;;5.80;;
4676;SDS011;2352;48.180;11.478;2023-06-22T06:06:59;12.50;;;7.43;;
4676;SDS011;2352;48.180;11.478;2023-06-22T06:10:03;9.88;;;7.03;;
4676;SDS011;2352;48.180;11.478;2023-06-22T06:13:07;11.02;;;6.40;;
4676;SDS011;2352;48.180;11.478;2023-06-22T06:16:10;8.50;;;5.95;;
4676;SDS011;2352;48.180;11.478;2023-06-22T06:19:14;7.75;;;6.88;;
4676;SDS011;2352;48.180;11.478;2023-06-22T06:22:18;10.15;;;7.28;;
4676;SDS011;2352;48.180;11.478;2023-06-22T06:25:23;6.68;;;6.18;;
4676;SDS011;2352;48.180;11.478;2023-06-22T06:28:27;9.20;;;6.70;;
4676;SDS011;2352;48.180;11.478;2023-06-22T06:31:30;7.50;;;6.00;;
4676;SDS011;2352;48.180;11.478;2023-06-22T06:34:34;8.15;;;7.20;;
4676;SDS011;2352;48.180;11.478;2023-06-22T06:37:40;13.02;;;6.53;;
4676;SDS011;2352;48.180;11.478;2023-06-22T06:40:43;8.43;;;6.47;;
4676;SDS011;2352;48.180;11.478;2023-06-22T06:43:46;11.77;;;6.35;;
4676;SDS011;2352;48.180;11.478;2023-06-22T06:46:50;10.82;;;6.03;;
4676;SDS011;2352;48.180;11.478;2023-06-22T06:49:55;14.35;;;6.93;;
4676;SDS011;2352;48.180;11.478;2023-06-22T06:53:00;9.82;;;6.85;;
4676;SDS011;2352;48.180;11.478;2023-06-22T06:56:04;7.78;;;7.05;;
4676;SDS011;2352;48.180;11.478;2023-06-22T06:59:07;7.78;;;6.93;;
4676;SDS011;2352;48.180;11.478;2023-06-22T07:02:10;7.47;;;6.63;;
4676;SDS011;2352;48.180;11.478;2023-06-22T07:05:14;8.73;;;6.20;;
4676;SDS011;2352;48.180;11.478;2023-06-22T07:08:18;7.45;;;6.85;;
4676;SDS011;2352;48.180;11.478;2023-06-22T07:11:21;8.77;;;6.32;;
4676;SDS011;2352;48.180;11.478;2023-06-22T07:14:25;8.15;;;7.30;;
4676;SDS011;2352;48.180;11.478;2023-06-22T07:17:28;6.78;;;5.80;;
4676;SDS011;2352;48.180;11.478;2023-06-22T07:20:31;9.45;;;6.25;;
4676;SDS011;2352;48.180;11.478;2023-06-22T07:23:37;7.93;;;5.85;;
4676;SDS011;2352;48.180;11.478;2023-06-22T07:26:40;7.70;;;7.10;;
4676;SDS011;2352;48.180;11.478;2023-06-22T07:29:46;6.28;;;5.68;;
4676;SDS011;2352;48.180;11.478;2023-06-22T07:32:50;7.97;;;6.18;;
4676;SDS011;2352;48.180;11.478;2023-06-22T07:35:53;7.03;;;6.53;;
4676;SDS011;2352;48.180;11.478;2023-06-22T07:38:58;8.10;;;7.28;;
4676;SDS011;2352;48.180;11.478;2023-06-22T07:42:01;23.02;;;7.20;;
4676;SDS011;2352;48.180;11.478;2023-06-22T07:45:05;7.10;;;6.50;;
4676;SDS011;2352;48.180;11.478;2023-06-22T07:48:09;12.93;;;6.22;;
4676;SDS011;2352;48.180;11.478;2023-06-22T07:51:13;11.95;;;7.10;;
4676;SDS011;2352;48.180;11.478;2023-06-22T07:54:17;9.52;;;7.88;;
4676;SDS011;2352;48.180;11.478;2023-06-22T07:57:21;7.40;;;6.80;;
4676;SDS011;2352;48.180;11.478;2023-06-22T08:00:24;9.15;;;8.18;;
4676;SDS011;2352;48.180;11.478;2023-06-22T08:03:27;6.53;;;5.93;;
4676;SDS011;2352;48.180;11.478;2023-06-22T08:06:30;8.85;;;7.47;;
4676;SDS011;2352;48.180;11.478;2023-06-22T08:09:35;11.65;;;6.68;;
4676;SDS011;2352;48.180;11.478;2023-06-22T08:12:39;9.15;;;6.60;;
4676;SDS011;2352;48.180;11.478;2023-06-22T08:15:42;7.22;;;6.50;;
4676;SDS011;2352;48.180;11.478;2023-06-22T08:18:48;12.82;;;6.85;;
4676;SDS011;2352;48.180;11.478;2023-06-22T08:21:51;7.20;;;5.93;;
4676;SDS011;2352;48.180;11.478;2023-06-22T08:24:55;7.68;;;6.30;;
4676;SDS011;2352;48.180;11.478;2023-06-22T08:27:59;12.35;;;7.18;;
4676;SDS011;2352;48.180;11.478;2023-06-22T08:31:02;10.60;;;6.88;;
4676;SDS011;2352;48.180;11.478;2023-06-22T08:34:06;8.20;;;7.32;;
4676;SDS011;2352;48.180;11.478;2023-06-22T08:37:09;8.30;;;6.57;;
4676;SDS011;2352;48.180;11.478;2023-06-22T08:40:13;8.98;;;6.25;;
4676;SDS011;2352;48.180;11.478;2023-06-22T08:43:17;9.15;;;6.88;;
4676;SDS011;2352;48.180;11.478;2023-06-22T08:46:20;8.88;;;6.10;;
4676;SDS011;2352;48.180;11.478;2023-06-22T08:49:31;9.13;;;6.93;;
4676;SDS011;2352;48.180;11.478;2023-06-22T08:52:34;12.02;;;7.03;;
4676;SDS011;2352;48.180;11.478;2023-06-22T08:55:39;7.15;;;6.60;;
4676;SDS011;2352;48.180;11.478;2023-06-22T08:58:42;13.55;;;6.63;;
4676;SDS011;2352;48.180;11.478;2023-06-22T09:01:46;9.80;;;6.68;;
4676;SDS011;2352;48.180;11.478;2023-06-22T09:04:49;11.25;;;7.55;;
4676;SDS011;2352;48.180;11.478;2023-06-22T09:07:57;13.25;;;7.05;;
4676;SDS011;2352;48.180;11.478;2023-06-22T09:11:02;7.00;;;6.30;;
4676;SDS011;2352;48.180;11.478;2023-06-22T09:14:05;6.97;;;6.18;;
4676;SDS011;2352;48.180;11.478;2023-06-22T09:17:08;7.55;;;6.22;;
4676;SDS011;2352;48.180;11.478;2023-06-22T09:20:12;8.88;;;7.35;;
4676;SDS011;2352;48.180;11.478;2023-06-22T09:23:15;11.38;;;6.88;;
4676;SDS011;2352;48.180;11.478;2023-06-22T09:26:20;7.68;;;6.82;;
4676;SDS011;2352;48.180;11.478;2023-06-22T09:29:23;9.48;;;7.28;;
4676;SDS011;2352;48.180;11.478;2023-06-22T09:32:27;10.43;;;6.82;;
4676;SDS011;2352;48.180;11.478;2023-06-22T09:35:30;12.38;;;6.85;;
4676;SDS011;2352;48.180;11.478;2023-06-22T09:38:34;10.70;;;7.22;;
4676;SDS011;2352;48.180;11.478;2023-06-22T09:41:39;7.22;;;6.63;;
4676;SDS011;2352;48.180;11.478;2023-06-22T09:44:44;9.88;;;7.18;;
4676;SDS011;2352;48.180;11.478;2023-06-22T09:47:47;9.88;;;7.10;;
4676;SDS011;2352;48.180;11.478;2023-06-22T09:50:51;10.20;;;6.90;;
4676;SDS011;2352;48.180;11.478;2023-06-22T09:53:55;7.00;;;6.30;;
4676;SDS011;2352;48.180;11.478;2023-06-22T09:57:00;12.07;;;6.50;;
4676;SDS011;2352;48.180;11.478;2023-06-22T10:00:04;8.13;;;6.97;;
4676;SDS011;2352;48.180;11.478;2023-06-22T10:03:11;13.95;;;7.75;;
4676;SDS011;2352;48.180;11.478;2023-06-22T10:06:14;8.75;;;6.38;;
4676;SDS011;2352;48.180;11.478;2023-06-22T10:09:18;8.80;;;6.35;;
4676;SDS011;2352;48.180;11.478;2023-06-22T10:12:24;14.23;;;6.82;;
4676;SDS011;2352;48.180;11.478;2023-06-22T10:15:27;12.23;;;7.28;;
4676;SDS011;2352;48.180;11.478;2023-06-22T10:18:31;16.38;;;7.85;;
4676;SDS011;2352;48.180;11.478;2023-06-22T10:21:34;14.05;;;6.95;;
4676;SDS011;2352;48.180;11.478;2023-06-22T10:24:38;14.20;;;7.25;;
4676;SDS011;2352;48.180;11.478;2023-06-22T10:27:47;15.90;;;6.80;;
4676;SDS011;2352;48.180;11.478;2023-06-22T10:30:50;15.77;;;6.65;;
4676;SDS011;2352;48.180;11.478;2023-06-22T10:33:54;6.80;;;6.05;;
4676;SDS011;2352;48.180;11.478;2023-06-22T10:36:58;10.90;;;6.22;;
4676;SDS011;2352;48.180;11.478;2023-06-22T10:40:01;15.13;;;8.52;;
4676;SDS011;2352;48.180;11.478;2023-06-22T10:43:07;7.05;;;6.07;;
4676;SDS011;2352;48.180;11.478;2023-06-22T10:46:12;11.00;;;6.70;;
4676;SDS011;2352;48.180;11.478;2023-06-22T10:49:15;13.43;;;7.13;;
4676;SDS011;2352;48.180;11.478;2023-06-22T10:52:19;14.38;;;6.97;;
4676;SDS011;2352;48.180;11.478;2023-06-22T10:55:22;11.57;;;6.88;;
4676;SDS011;2352;48.180;11.478;2023-06-22T10:58:27;9.35;;;5.88;;
4676;SDS011;2352;48.180;11.478;2023-06-22T11:01:30;8.13;;;6.38;;
4676;SDS011;2352;48.180;11.478;2023-06-22T11:04:37;15.20;;;7.30;;
4676;SDS011;2352;48.180;11.478;2023-06-22T11:07:41;11.95;;;5.88;;
4676;SDS011;2352;48.180;11.478;2023-06-22T11:10:50;11.35;;;6.65;;
4676;SDS011;2352;48.180;11.478;2023-06-22T11:13:55;8.00;;;7.30;;
4676;SDS011;2352;48.180;11.478;2023-06-22T11:16:58;13.10;;;7.50;;
4676;SDS011;2352;48.180;11.478;2023-06-22T11:20:02;11.20;;;7.72;;
4676;SDS011;2352;48.180;11.478;2023-06-22T11:23:11;25.15;;;22.85;;
4676;SDS011;2352;48.180;11.478;2023-06-22T11:26:14;20.10;;;9.60;;
4676;SDS011;2352;48.180;11.478;2023-06-22T11:29:18;12.32;;;7.00;;
4676;SDS011;2352;48.180;11.478;2023-06-22T11:32:36;11.07;;;6.97;;
4676;SDS011;2352;48.180;11.478;2023-06-22T11:35:40;17.95;;;7.55;;
4676;SDS011;2352;48.180;11.478;2023-06-22T11:38:43;10.23;;;7.72;;
4676;SDS011;2352;48.180;11.478;2023-06-22T11:41:46;8.02;;;7.07;;
4676;SDS011;2352;48.180;11.478;2023-06-22T11:44:51;12.20;;;7.35;;
4676;SDS011;2352;48.180;11.478;2023-06-22T11:47:54;13.57;;;7.20;;
4676;SDS011;2352;48.180;11.478;2023-06-22T11:50:58;12.98;;;7.57;;
4676;SDS011;2352;48.180;11.478;2023-06-22T11:54:02;14.07;;;7.07;;
4676;SDS011;2352;48.180;11.478;2023-06-22T11:57:06;13.88;;;6.82;;
4676;SDS011;2352;48.180;11.478;2023-06-22T12:00:11;18.20;;;7.25;;
4676;SDS011;2352;48.180;11.478;2023-06-22T12:03:18;14.07;;;6.28;;
4676;SDS011;2352;48.180;11.478;2023-06-22T12:06:23;9.18;;;6.95;;
4676;SDS011;2352;48.180;11.478;2023-06-22T12:09:26;10.97;;;7.00;;
4676;SDS011;2352;48.180;11.478;2023-06-22T12:12:29;8.75;;;6.75;;
4676;SDS011;2352;48.180;11.478;2023-06-22T12:15:34;10.13;;;6.38;;
4676;SDS011;2352;48.180;11.478;2023-06-22T12:18:37;15.35;;;7.22;;
4676;SDS011;2352;48.180;11.478;2023-06-22T12:21:41;13.48;;;7.68;;
4676;SDS011;2352;48.180;11.478;2023-06-22T12:24:46;9.60;;;6.95;;
4676;SDS011;2352;48.180;11.478;2023-06-22T12:27:50;8.13;;;6.93;;
4676;SDS011;2352;48.180;11.478;2023-06-22T12:30:54;12.35;;;8.30;;
4676;SDS011;2352;48.180;11.478;2023-06-22T12:33:58;12.75;;;6.13;;
4676;SDS011;2352;48.180;11.478;2023-06-22T12:37:01;9.93;;;6.85;;
4676;SDS011;2352;48.180;11.478;2023-06-22T12:40:06;13.43;;;7.35;;
4676;SDS011;2352;48.180;11.478;2023-06-22T12:43:11;6.35;;;5.78;;
4676;SDS011;2352;48.180;11.478;2023-06-22T12:46:16;11.50;;;7.45;;
4676;SDS011;2352;48.180;11.478;2023-06-22T12:49:19;14.50;;;6.78;;
4676;SDS011;2352;48.180;11.478;2023-06-22T12:52:23;7.53;;;6.82;;
4676;SDS011;2352;48.180;11.478;2023-06-22T12:55:26;13.02;;;7.50;;
4676;SDS011;2352;48.180;11.478;2023-06-22T12:58:30;10.45;;;7.05;;
4676;SDS011;2352;48.180;11.478;2023-06-22T13:01:34;9.48;;;6.28;;
4676;SDS011;2352;48.180;11.478;2023-06-22T13:04:38;9.68;;;5.88;;
4676;SDS011;2352;48.180;11.478;2023-06-22T13:07:41;16.35;;;6.00;;
4676;SDS011;2352;48.180;11.478;2023-06-22T13:10:45;10.90;;;7.70;;
4676;SDS011;2352;48.180;11.478;2023-06-22T13:13:48;9.27;;;6.90;;
4676;SDS011;2352;48.180;11.478;2023-06-22T13:16:52;7.55;;;5.68;;
4676;SDS011;2352;48.180;11.478;2023-06-22T13:19:56;9.45;;;6.60;;
4676;SDS011;2352;48.180;11.478;2023-06-22T13:22:59;7.70;;;5.80;;
4676;SDS011;2352;48.180;11.478;2023-06-22T13:26:02;13.43;;;6.13;;
4676;SDS011;2352;48.180;11.478;2023-06-22T13:29:05;8.68;;;6.65;;
4676;SDS011;2352;48.180;11.478;2023-06-22T13:32:10;11.13;;;6.05;;
4676;SDS011;2352;48.180;11.478;2023-06-22T13:35:13;9.38;;;6.43;;
4676;SDS011;2352;48.180;11.478;2023-06-22T13:38:17;7.72;;;5.80;;
4676;SDS011;2352;48.180;11.478;2023-06-22T13:41:20;6.65;;;5.95;;
4676;SDS011;2352;48.180;11.478;2023-06-22T13:44:24;10.45;;;6.57;;
4676;SDS011;2352;48.180;11.478;2023-06-22T13:47:31;11.30;;;6.00;;
4676;SDS011;2352;48.180;11.478;2023-06-22T13:50:34;9.93;;;6.72;;
4676;SDS011;2352;48.180;11.478;2023-06-22T13:53:38;9.73;;;6.30;;
4676;SDS011;2352;48.180;11.478;2023-06-22T13:56:41;10.32;;;6.10;;
4676;SDS011;2352;48.180;11.478;2023-06-22T13:59:44;9.52;;;5.43;;
4676;SDS011;2352;48.180;11.478;2023-06-22T14:02:49;14.93;;;7.13;;
4676;SDS011;2352;48.180;11.478;2023-06-22T14:05:53;10.32;;;6.13;;
4676;SDS011;2352;48.180;11.478;2023-06-22T14:08:57;7.78;;;5.90;;
4676;SDS011;2352;48.180;11.478;2023-06-22T14:12:02;5.95;;;5.35;;
4676;SDS011;2352;48.180;11.478;2023-06-22T14:15:07;13.38;;;7.45;;
4676;SDS011;2352;48.180;11.478;2023-06-22T14:18:11;10.50;;;6.22;;
4676;SDS011;2352;48.180;11.478;2023-06-22T14:21:15;6.57;;;5.47;;
4676;SDS011;2352;48.180;11.478;2023-06-22T14:24:20;10.68;;;6.10;;
4676;SDS011;2352;48.180;11.478;2023-06-22T14:27:27;7.75;;;5.43;;
4676;SDS011;2352;48.180;11.478;2023-06-22T14:30:30;6.88;;;6.03;;
4676;SDS011;2352;48.180;11.478;2023-06-22T14:33:34;12.23;;;5.43;;
4676;SDS011;2352;48.180;11.478;2023-06-22T14:36:38;12.75;;;5.57;;
4676;SDS011;2352;48.180;11.478;2023-06-22T14:39:41;9.45;;;5.32;;
4676;SDS011;2352;48.180;11.478;2023-06-22T14:42:45;18.52;;;5.35;;
4676;SDS011;2352;48.180;11.478;2023-06-22T14:45:48;8.23;;;4.72;;
4676;SDS011;2352;48.180;11.478;2023-06-22T14:48:55;7.57;;;5.28;;
4676;SDS011;2352;48.180;11.478;2023-06-22T14:51:58;7.90;;;5.22;;
4676;SDS011;2352;48.180;11.478;2023-06-22T14:55:01;5.78;;;5.25;;
4676;SDS011;2352;48.180;11.478;2023-06-22T14:58:04;11.65;;;5.20;;
4676;SDS011;2352;48.180;11.478;2023-06-22T15:01:08;6.90;;;4.85;;
4676;SDS011;2352;48.180;11.478;2023-06-22T15:04:12;15.88;;;5.72;;
4676;SDS011;2352;48.180;11.478;2023-06-22T15:07:17;9.82;;;5.68;;
4676;SDS011;2352;48.180;11.478;2023-06-22T15:10:20;11.65;;;5.45;;
4676;SDS011;2352;48.180;11.478;2023-06-22T15:13:24;8.45;;;5.10;;
4676;SDS011;2352;48.180;11.478;2023-06-22T15:16:27;12.30;;;6.32;;
4676;SDS011;2352;48.180;11.478;2023-06-22T15:19:32;8.65;;;4.45;;
4676;SDS011;2352;48.180;11.478;2023-06-22T15:22:35;12.73;;;5.85;;
4676;SDS011;2352;48.180;11.478;2023-06-22T15:25:39;9.10;;;4.75;;
4676;SDS011;2352;48.180;11.478;2023-06-22T15:28:43;9.77;;;5.05;;
4676;SDS011;2352;48.180;11.478;2023-06-22T15:31:46;10.93;;;5.28;;
4676;SDS011;2352;48.180;11.478;2023-06-22T15:34:51;11.68;;;6.45;;
4676;SDS011;2352;48.180;11.478;2023-06-22T15:37:55;10.23;;;4.57;;
4676;SDS011;2352;48.180;11.478;2023-06-22T15:40:58;9.68;;;5.82;;
4676;SDS011;2352;48.180;11.478;2023-06-22T15:44:02;7.32;;;4.78;;
4676;SDS011;2352;48.180;11.478;2023-06-22T15:47:05;8.85;;;4.90;;
4676;SDS011;2352;48.180;11.478;2023-06-22T15:50:10;8.00;;;4.47;;
4676;SDS011;2352;48.180;11.478;2023-06-22T15:53:14;10.73;;;5.15;;
4676;SDS011;2352;48.180;11.478;2023-06-22T15:56:17;9.75;;;5.40;;
4676;SDS011;2352;48.180;11.478;2023-06-22T15:59:21;12.20;;;5.88;;
4676;SDS011;2352;48.180;11.478;2023-06-22T16:02:25;12.20;;;6.25;;
4676;SDS011;2352;48.180;11.478;2023-06-22T16:05:30;12.57;;;5.05;;
4676;SDS011;2352;48.180;11.478;2023-06-22T16:08:34;7.80;;;5.43;;
4676;SDS011;2352;48.180;11.478;2023-06-22T16:11:37;9.77;;;4.70;;
4676;SDS011;2352;48.180;11.478;2023-06-22T16:14:40;5.95;;;4.80;;
4676;SDS011;2352;48.180;11.478;2023-06-22T16:17:44;11.35;;;5.35;;
4676;SDS011;2352;48.180;11.478;2023-06-22T16:20:48;10.65;;;5.80;;
4676;SDS011;2352;48.180;11.478;2023-06-22T16:23:52;9.50;;;5.03;;
4676;SDS011;2352;48.180;11.478;2023-06-22T16:26:55;11.30;;;5.13;;
4676;SDS011;2352;48.180;11.478;2023-06-22T16:29:58;13.10;;;6.10;;
4676;SDS011;2352;48.180;11.478;2023-06-22T16:33:02;17.35;;;5.32;;
4676;SDS011;2352;48.180;11.478;2023-06-22T16:36:07;11.52;;;5.50;;
4676;SDS011;2352;48.180;11.478;2023-06-22T16:39:10;8.10;;;4.88;;
4676;SDS011;2352;48.180;11.478;2023-06-22T16:42:13;10.98;;;4.72;;
4676;SDS011;2352;48.180;11.478;2023-06-22T16:45:17;7.18;;;4.93;;
4676;SDS011;2352;48.180;11.478;2023-06-22T16:48:21;11.35;;;5.45;;
4676;SDS011;2352;48.180;11.478;2023-06-22T16:51:25;15.88;;;6.90;;
4676;SDS011;2352;48.180;11.478;2023-06-22T16:54:29;9.48;;;5.28;;
4676;SDS011;2352;48.180;11.478;2023-06-22T16:57:34;10.13;;;4.90;;
4676;SDS011;2352;48.180;11.478;2023-06-22T17:00:37;9.65;;;5.55;;
4676;SDS011;2352;48.180;11.478;2023-06-22T17:03:44;13.75;;;5.68;;
4676;SDS011;2352;48.180;11.478;2023-06-22T17:06:53;20.67;;;7.70;;
4676;SDS011;2352;48.180;11.478;2023-06-22T17:09:57;23.20;;;8.35;;
4676;SDS011;2352;48.180;11.478;2023-06-22T17:13:02;25.80;;;8.68;;
4676;SDS011;2352;48.180;11.478;2023-06-22T17:16:06;18.45;;;8.93;;
4676;SDS011;2352;48.180;11.478;2023-06-22T17:19:12;21.23;;;10.23;;
4676;SDS011;2352;48.180;11.478;2023-06-22T17:22:16;32.58;;;11.07;;
4676;SDS011;2352;48.180;11.478;2023-06-22T17:25:20;22.45;;;9.90;;
4676;SDS011;2352;48.180;11.478;2023-06-22T17:28:24;20.83;;;8.32;;
4676;SDS011;2352;48.180;11.478;2023-06-22T17:31:35;15.32;;;8.18;;
4676;SDS011;2352;48.180;11.478;2023-06-22T17:34:40;16.67;;;7.95;;
4676;SDS011;2352;48.180;11.478;2023-06-22T17:37:48;25.48;;;8.35;;
4676;SDS011;2352;48.180;11.478;2023-06-22T17:40:52;26.00;;;7.47;;
4676;SDS011;2352;48.180;11.478;2023-06-22T17:43:55;11.85;;;5.43;;
4676;SDS011;2352;48.180;11.478;2023-06-22T17:47:00;25.20;;;5.45;;
4676;SDS011;2352;48.180;11.478;2023-06-22T17:50:05;6.78;;;3.60;;
4676;SDS011;2352;48.180;11.478;2023-06-22T17:53:10;6.68;;;3.58;;
4676;SDS011;2352;48.180;11.478;2023-06-22T17:56:14;7.38;;;3.17;;
4676;SDS011;2352;48.180;11.478;2023-06-22T17:59:17;7.15;;;3.45;;
4676;SDS011;2352;48.180;11.478;2023-06-22T18:02:21;4.65;;;3.63;;
4676;SDS011;2352;48.180;11.478;2023-06-22T18:05:29;9.60;;;2.78;;
4676;SDS011;2352;48.180;11.478;2023-06-22T18:08:34;10.77;;;2.78;;
4676;SDS011;2352;48.180;11.478;2023-06-22T18:11:40;8.45;;;3.17;;
4676;SDS011;2352;48.180;11.478;2023-06-22T18:14:45;9.98;;;3.17;;
4676;SDS011;2352;48.180;11.478;2023-06-22T18:17:50;12.23;;;4.07;;
4676;SDS011;2352;48.180;11.478;2023-06-22T18:20:54;4.75;;;3.40;;
4676;SDS011;2352;48.180;11.478;2023-06-22T18:24:00;7.07;;;3.50;;
4676;SDS011;2352;48.180;11.478;2023-06-22T18:27:04;10.20;;;3.63;;
4676;SDS011;2352;48.180;11.478;2023-06-22T18:30:08;4.70;;;3.90;;
4676;SDS011;2352;48.180;11.478;2023-06-22T18:33:12;6.43;;;3.78;;
4676;SDS011;2352;48.180;11.478;2023-06-22T18:36:17;10.35;;;5.43;;
4676;SDS011;2352;48.180;11.478;2023-06-22T18:39:22;5.78;;;3.85;;